Time;durP1;ratioP1;P1;durP2;ratioP2;P2;SDS_P1;SDS_P2;PMS_P1;PMS_P2;Temp;Humidity;BMP_temperature;BMP_pressure;BME280_temperature;BME280_humidity;BME280_pressure;Samples;Min_cycle;Max_cycle;Signal;HPM_P1;HPM_P2
2022/07/26 00:01:50;;;;;;;;;;;25.20;80.00;;;;;;5053670;28;20033;-57
2022/07/26 00:04:16;;;;;;;2.40;0.93;;;25.20;80.10;;;;;;5052894;28;20289;-56
2022/07/26 00:06:42;;;;;;;;;;;25.20;80.30;;;;;;5051916;28;20100;-58
2022/07/26 00:09:08;;;;;;;2.90;0.80;;;25.10;80.50;;;;;;5052561;28;19912;-58
2022/07/26 00:11:33;;;;;;;;;;;25.10;80.70;;;;;;5053362;28;20023;-59
2022/07/26 00:14:04;;;;;;;1.73;1.05;;;25.00;80.80;;;;;;5052681;28;19909;-59
2022/07/26 00:16:30;;;;;;;1.92;0.98;;;25.00;80.90;;;;;;5052729;28;20075;-60
2022/07/26 00:18:55;;;;;;;;;;;25.00;81.60;;;;;;5053172;28;20358;-59
2022/07/26 00:21:21;;;;;;;3.72;1.00;;;25.00;81.10;;;;;;5052732;28;19905;-59
2022/07/26 00:23:47;;;;;;;3.65;1.02;;;25.00;81.00;;;;;;5052528;28;20025;-59
2022/07/26 00:26:12;;;;;;;;;;;25.00;81.60;;;;;;5053249;28;20037;-59
2022/07/26 00:28:40;;;;;;;2.83;0.88;;;25.00;81.80;;;;;;5052427;28;19909;-60
2022/07/26 00:31:05;;;;;;;2.63;1.05;;;25.00;81.90;;;;;;5051090;28;20022;-59
2022/07/26 00:33:31;;;;;;;;;;;24.90;82.50;;;;;;5053145;28;20032;-60
2022/07/26 00:35:56;;;;;;;1.92;1.13;;;24.90;83.00;;;;;;5052795;28;19905;-59
2022/07/26 00:38:22;;;;;;;;;;;24.80;83.30;;;;;;5052865;28;20029;-60
2022/07/26 00:40:48;;;;;;;1.08;0.77;;;24.80;83.50;;;;;;5052678;28;19909;-57
2022/07/26 00:43:13;;;;;;;;;;;24.70;83.80;;;;;;5051680;28;20241;-60
2022/07/26 00:45:39;;;;;;;1.95;0.90;;;24.70;84.10;;;;;;5052864;28;19905;-59
2022/07/26 00:48:04;;;;;;;;;;;24.70;84.50;;;;;;5052600;28;20037;-60
2022/07/26 00:50:30;;;;;;;2.60;0.80;;;24.70;84.70;;;;;;5052501;28;19905;-60
2022/07/26 00:52:55;;;;;;;;;;;24.60;85.00;;;;;;5051344;28;20032;-57
2022/07/26 00:55:21;;;;;;;1.00;0.90;;;24.60;85.30;;;;;;5052359;28;19904;-58
2022/07/26 00:57:47;;;;;;;;;;;24.60;85.30;;;;;;5051321;28;20029;-53
2022/07/26 01:00:17;;;;;;;1.80;0.98;;;24.60;85.60;;;;;;5055858;28;19959;-56
2022/07/26 01:02:42;;;;;;;1.58;0.90;;;24.60;85.70;;;;;;5055994;28;20021;-57
2022/07/26 01:05:08;;;;;;;;;;;24.50;86.00;;;;;;5056508;28;20090;-57
2022/07/26 01:07:36;;;;;;;3.33;1.45;;;24.50;86.20;;;;;;5055378;28;19913;-58
2022/07/26 01:10:04;;;;;;;3.63;0.80;;;24.40;86.40;;;;;;5054260;28;20028;-60
2022/07/26 01:12:30;;;;;;;2.03;0.90;;;24.30;86.90;;;;;;5055563;28;20029;-56
2022/07/26 01:14:55;;;;;;;;;;;24.30;87.10;;;;;;5054683;28;20078;-60
2022/07/26 01:17:21;;;;;;;2.05;0.98;;;24.30;88.20;;;;;;5054195;28;19904;-59
2022/07/26 01:19:46;;;;;;;;;;;24.20;88.70;;;;;;5056497;28;20111;-58
2022/07/26 01:22:12;;;;;;;0.90;0.75;;;24.30;89.60;;;;;;5055799;28;19940;-57
2022/07/26 01:24:37;;;;;;;;;;;24.20;90.20;;;;;;5055043;28;20535;-60
2022/07/26 01:27:03;;;;;;;1.17;1.05;;;24.10;91.40;;;;;;5055266;28;20235;-57
2022/07/26 01:29:28;;;;;;;;;;;24.10;92.30;;;;;;5055724;28;20029;-54
2022/07/26 01:31:54;;;;;;;2.42;1.40;;;24.00;92.90;;;;;;5055631;28;19995;-56
2022/07/26 01:34:19;;;;;;;;;;;23.90;93.40;;;;;;5054272;28;20033;-57
2022/07/26 01:36:45;;;;;;;3.60;0.90;;;23.80;94.20;;;;;;5055052;28;20357;-58
2022/07/26 01:39:11;;;;;;;4.28;1.00;;;23.80;95.00;;;;;;5054954;28;20409;-57
2022/07/26 01:41:37;;;;;;;;;;;23.70;96.10;;;;;;5055439;28;20422;-56
2022/07/26 01:44:03;;;;;;;1.63;1.00;;;23.70;96.10;;;;;;5055065;28;20361;-59
2022/07/26 01:46:28;;;;;;;;;;;23.60;96.10;;;;;;5054030;28;20028;-56
2022/07/26 01:48:54;;;;;;;1.83;0.93;;;23.50;96.40;;;;;;5053568;28;19912;-60
2022/07/26 01:51:19;;;;;;;;;;;23.50;96.90;;;;;;5055651;28;20024;-57
2022/07/26 01:53:45;;;;;;;3.38;0.90;;;23.40;96.80;;;;;;5055008;28;19905;-59
2022/07/26 01:56:13;;;;;;;2.08;0.90;;;23.30;97.70;;;;;;5055075;28;20096;-54
2022/07/26 01:58:40;;;;;;;2.50;1.08;;;23.30;97.70;;;;;;5055032;28;20036;-59
2022/07/26 02:01:06;;;;;;;1.83;0.93;;;23.30;97.40;;;;;;5055043;28;20104;-59
2022/07/26 02:03:32;;;;;;;;;;;23.40;97.50;;;;;;5057406;28;20082;-60
2022/07/26 02:05:57;;;;;;;1.48;0.82;;;23.30;98.00;;;;;;5057136;28;19909;-60
2022/07/26 02:08:22;;;;;;;;;;;23.30;98.60;;;;;;5079238;22;20088;-59
2022/07/26 02:11:00;;;;;;;3.15;0.93;;;23.20;98.70;;;;;;5053696;28;19921;-59
2022/07/26 02:13:31;;;;;;;2.65;0.90;;;23.10;99.50;;;;;;5055340;28;20381;-61
2022/07/26 02:15:59;;;;;;;1.95;0.98;;;23.10;99.50;;;;;;5054598;28;20021;-59
2022/07/26 02:18:27;;;;;;;1.33;0.80;;;23.10;99.50;;;;;;5054995;28;20413;-60
2022/07/26 02:20:53;;;;;;;1.05;0.82;;;23.10;99.70;;;;;;5053657;28;20124;-61
2022/07/26 02:23:20;;;;;;;2.50;0.93;;;23.10;99.80;;;;;;5054633;28;20063;-59
2022/07/26 02:25:46;;;;;;;2.15;1.10;;;23.10;99.90;;;;;;5055230;28;20033;-57
2022/07/26 02:28:12;;;;;;;1.13;0.90;;;23.10;99.90;;;;;;5053272;28;20029;-60
2022/07/26 02:30:38;;;;;;;;;;;23.10;99.90;;;;;;5055239;28;20378;-61
2022/07/26 02:33:03;;;;;;;2.65;1.35;;;23.10;99.90;;;;;;5052938;28;19904;-59
2022/07/26 02:35:30;;;;;;;;;;;23.00;99.90;;;;;;5053382;28;20035;-60
2022/07/26 02:38:03;;;;;;;1.70;1.00;;;23.10;99.90;;;;;;5054041;28;20391;-60
2022/07/26 02:40:29;;;;;;;2.28;1.17;;;23.00;99.90;;;;;;5054446;28;20033;-60
2022/07/26 02:42:54;;;;;;;1.63;1.10;;;22.90;99.90;;;;;;5053039;28;20504;-60
2022/07/26 02:45:20;;;;;;;;;;;22.90;99.90;;;;;;5054754;28;20033;-59
2022/07/26 02:47:47;;;;;;;3.90;1.08;;;22.90;99.90;;;;;;5053313;28;19932;-60
2022/07/26 02:50:15;;;;;;;4.00;1.20;;;22.80;99.90;;;;;;5054678;28;20412;-59
2022/07/26 02:52:41;;;;;;;2.75;1.10;;;22.80;99.90;;;;;;5053045;28;20031;-61
2022/07/26 02:55:07;;;;;;;2.60;1.02;;;22.80;99.90;;;;;;5053784;28;20107;-59
2022/07/26 02:57:32;;;;;;;;;;;22.80;99.90;;;;;;5052848;28;20033;-60
2022/07/26 02:59:58;;;;;;;2.88;1.10;;;22.80;99.90;;;;;;5053884;28;19904;-59
2022/07/26 03:02:23;;;;;;;11.98;1.80;;;22.80;99.90;;;;;;5053988;28;20077;-58
2022/07/26 03:04:49;;;;;;;3.53;1.08;;;22.80;99.90;;;;;;5053625;28;20064;-59
2022/07/26 03:07:14;;;;;;;2.13;0.90;;;22.80;99.90;;;;;;5053489;28;20135;-58
2022/07/26 03:09:40;;;;;;;3.28;1.30;;;22.70;99.90;;;;;;5053583;28;20029;-60
2022/07/26 03:12:06;;;;;;;2.08;0.88;;;22.60;99.90;;;;;;5053642;28;20096;-60
2022/07/26 03:14:31;;;;;;;2.38;1.10;;;22.60;99.90;;;;;;5055677;28;20025;-60
2022/07/26 03:16:57;;;;;;;2.13;1.27;;;22.60;99.90;;;;;;5053745;28;20074;-56
2022/07/26 03:19:22;;;;;;;1.33;1.00;;;22.50;99.90;;;;;;5053409;28;20029;-60
2022/07/26 03:21:48;;;;;;;3.58;1.00;;;22.50;99.90;;;;;;5051732;28;20043;-56
2022/07/26 03:24:13;;;;;;;;;;;22.40;99.90;;;;;;5053980;28;20036;-60
2022/07/26 03:26:39;;;;;;;1.10;1.00;;;22.50;99.90;;;;;;5053656;28;19991;-60
2022/07/26 03:29:05;;;;;;;2.50;1.40;;;22.50;99.90;;;;;;5054995;28;20024;-59
2022/07/26 03:31:30;;;;;;;2.45;1.00;;;22.40;99.90;;;;;;5052504;28;20048;-58
2022/07/26 03:33:56;;;;;;;2.13;1.25;;;22.40;99.90;;;;;;5053077;28;20104;-60
2022/07/26 03:36:21;;;;;;;3.17;1.13;;;22.30;99.90;;;;;;5053106;28;20475;-60
2022/07/26 03:38:47;;;;;;;2.08;1.10;;;22.30;99.90;;;;;;5053138;28;20036;-59
2022/07/26 03:41:12;;;;;;;2.58;1.30;;;22.30;99.90;;;;;;5053068;28;20029;-60
2022/07/26 03:43:38;;;;;;;2.35;1.40;;;22.20;99.90;;;;;;5053223;28;20037;-59
2022/07/26 03:46:03;;;;;;;1.63;1.20;;;22.20;99.90;;;;;;5051560;28;20025;-60
2022/07/26 03:48:30;;;;;;;2.25;1.17;;;22.20;99.90;;;;;;5052848;28;20040;-59
2022/07/26 03:50:55;;;;;;;3.90;1.48;;;22.10;99.90;;;;;;5053390;28;20033;-59
2022/07/26 03:53:21;;;;;;;2.13;1.10;;;22.10;99.90;;;;;;5052240;28;20389;-61
2022/07/26 03:58:30;;;;;;;3.33;1.83;;;22.00;99.90;;;;;;5053221;28;20036;-60
2022/07/26 04:00:56;;;;;;;3.35;1.45;;;22.00;99.90;;;;;;5053531;28;20025;-58
2022/07/26 04:03:21;;;;;;;2.60;1.73;;;22.00;99.90;;;;;;5051618;28;20052;-59
2022/07/26 04:05:47;;;;;;;2.70;1.30;;;21.90;99.90;;;;;;5052991;28;20024;-60
2022/07/26 04:08:13;;;;;;;1.73;1.10;;;21.90;99.90;;;;;;5052770;28;20037;-59
2022/07/26 04:10:38;;;;;;;1.85;1.25;;;21.80;99.90;;;;;;5053099;28;20029;-59
2022/07/26 04:13:04;;;;;;;3.03;1.20;;;21.80;99.90;;;;;;5052953;28;20025;-59
2022/07/26 04:15:29;;;;;;;1.33;1.17;;;21.80;99.90;;;;;;5051811;28;20082;-59
2022/07/26 04:17:55;;;;;;;3.00;1.15;;;21.80;99.90;;;;;;5053918;28;20071;-58
2022/07/26 04:20:20;;;;;;;2.92;1.40;;;21.80;99.90;;;;;;5053595;28;20029;-58
2022/07/26 04:22:46;;;;;;;2.50;1.20;;;21.70;99.90;;;;;;5053065;28;20473;-59
2022/07/26 04:25:12;;;;;;;4.80;1.30;;;21.70;99.90;;;;;;5053533;28;20481;-59
2022/07/26 04:27:37;;;;;;;3.60;1.40;;;21.70;99.90;;;;;;5052732;28;20047;-58
2022/07/26 04:30:05;;;;;;;2.75;1.38;;;21.70;99.90;;;;;;5051541;28;20017;-58
2022/07/26 04:32:30;;;;;;;2.20;1.40;;;21.70;99.90;;;;;;5052621;28;20037;-59
2022/07/26 04:34:56;;;;;;;4.38;1.42;;;21.70;99.90;;;;;;5055427;28;20036;-59
2022/07/26 04:37:22;;;;;;;2.60;1.40;;;21.70;99.90;;;;;;5055588;28;20111;-60
2022/07/26 04:39:47;;;;;;;2.33;1.30;;;21.70;99.90;;;;;;5055701;28;20051;-56
2022/07/26 04:42:13;;;;;;;6.63;1.55;;;21.60;99.90;;;;;;5056958;28;20476;-59
2022/07/26 04:44:38;;;;;;;3.38;1.50;;;21.60;99.90;;;;;;5055659;28;20071;-59
2022/07/26 04:47:04;;;;;;;4.20;1.48;;;21.60;99.90;;;;;;5056728;28;20393;-59
2022/07/26 04:49:30;;;;;;;2.88;1.30;;;21.60;99.90;;;;;;5056912;28;20405;-59
2022/07/26 04:51:55;;;;;;;2.28;1.30;;;21.50;99.90;;;;;;5056990;28;20029;-59
2022/07/26 04:54:21;;;;;;;5.10;1.55;;;21.50;99.90;;;;;;5058016;28;20028;-58
2022/07/26 04:56:47;;;;;;;;;;;21.50;99.90;;;;;;5055731;28;20036;-58
2022/07/26 04:59:14;;;;;;;4.55;1.73;;;21.60;99.90;;;;;;5056799;28;19916;-56
2022/07/26 05:01:39;;;;;;;2.25;1.30;;;21.60;99.90;;;;;;5057039;28;20025;-59
2022/07/26 05:04:05;;;;;;;2.30;1.63;;;21.60;99.90;;;;;;5056751;28;20029;-59
2022/07/26 05:06:33;;;;;;;2.33;1.30;;;21.60;99.90;;;;;;5056523;28;20025;-57
2022/07/26 05:08:59;;;;;;;4.22;1.25;;;21.70;99.90;;;;;;5056538;28;20045;-60
2022/07/26 05:11:24;;;;;;;2.63;1.45;;;21.70;99.90;;;;;;5056261;28;20029;-60
2022/07/26 05:13:50;;;;;;;4.70;1.65;;;21.60;99.90;;;;;;5056738;28;20030;-60
2022/07/26 05:16:15;;;;;;;3.05;1.63;;;21.60;99.90;;;;;;5056197;28;20017;-58
2022/07/26 05:18:41;;;;;;;4.65;1.48;;;21.60;99.90;;;;;;5056015;28;20075;-60
2022/07/26 05:21:07;;;;;;;1.45;1.15;;;21.70;99.90;;;;;;5056011;28;20025;-61
2022/07/26 05:23:32;;;;;;;4.40;1.55;;;21.60;99.90;;;;;;5056854;28;20025;-59
2022/07/26 05:25:58;;;;;;;3.08;1.20;;;21.60;99.90;;;;;;5058188;28;20036;-60
2022/07/26 05:28:23;;;;;;;2.72;1.80;;;21.60;99.90;;;;;;5059142;28;20040;-59
2022/07/26 05:30:49;;;;;;;3.28;1.70;;;21.60;99.90;;;;;;5058013;28;20021;-60
2022/07/26 05:33:15;;;;;;;2.22;1.40;;;21.60;99.90;;;;;;5057001;28;20516;-60
2022/07/26 05:35:41;;;;;;;3.30;1.20;;;21.60;99.90;;;;;;5058947;28;20021;-60
2022/07/26 05:38:06;;;;;;;3.05;1.33;;;21.70;99.90;;;;;;5059766;28;20378;-60
2022/07/26 05:40:32;;;;;;;6.07;1.70;;;21.70;99.90;;;;;;5057213;28;20031;-60
2022/07/26 05:42:58;;;;;;;5.50;1.85;;;21.70;99.90;;;;;;5057729;28;20025;-60
2022/07/26 05:45:24;;;;;;;3.33;1.40;;;21.80;99.90;;;;;;5056818;28;20037;-58
2022/07/26 05:47:51;;;;;;;8.38;5.07;;;21.70;99.90;;;;;;5057261;28;20481;-61
2022/07/26 05:50:17;;;;;;;6.38;4.80;;;21.70;99.90;;;;;;5057026;28;20065;-59
2022/07/26 05:52:42;;;;;;;5.40;1.70;;;21.60;99.90;;;;;;5057516;28;20448;-60
2022/07/26 05:55:08;;;;;;;7.20;3.97;;;21.70;99.90;;;;;;5058940;28;20029;-59
2022/07/26 05:57:34;;;;;;;5.72;3.38;;;21.70;99.90;;;;;;5058752;28;20401;-60
2022/07/26 06:00:00;;;;;;;3.78;1.77;;;21.80;99.90;;;;;;5058161;28;20064;-60
2022/07/26 06:02:25;;;;;;;5.97;3.28;;;21.80;99.90;;;;;;5057422;28;20025;-59
2022/07/26 06:04:51;;;;;;;4.85;1.30;;;21.90;99.90;;;;;;5057304;28;20504;-60
2022/07/26 06:07:16;;;;;;;4.25;1.50;;;21.90;99.90;;;;;;5055904;28;20032;-61
2022/07/26 06:09:42;;;;;;;4.10;1.60;;;21.80;99.90;;;;;;5056570;28;20071;-60
2022/07/26 06:12:08;;;;;;;3.17;1.30;;;21.80;99.90;;;;;;5055857;28;20017;-59
2022/07/26 06:14:33;;;;;;;5.65;1.92;;;21.90;99.90;;;;;;5056119;28;20029;-61
2022/07/26 06:16:59;;;;;;;4.65;1.40;;;21.90;99.90;;;;;;5056056;28;20424;-59
2022/07/26 06:19:25;;;;;;;4.80;1.73;;;21.90;99.90;;;;;;5056099;28;20033;-60
2022/07/26 06:21:50;;;;;;;5.15;1.38;;;21.90;99.90;;;;;;5053571;28;20025;-60
2022/07/26 06:24:16;;;;;;;5.18;1.05;;;21.90;99.90;;;;;;5054713;28;20024;-60
2022/07/26 06:26:41;;;;;;;6.20;1.33;;;22.00;99.90;;;;;;5053227;28;20029;-60
2022/07/26 06:29:07;;;;;;;4.38;1.55;;;22.00;99.90;;;;;;5054091;28;20056;-60
2022/07/26 06:31:33;;;;;;;6.43;1.55;;;22.00;99.90;;;;;;5054526;28;20523;-58
2022/07/26 06:33:58;;;;;;;2.50;1.25;;;21.90;99.90;;;;;;5054440;28;20100;-60
2022/07/26 06:36:24;;;;;;;1.55;0.90;;;21.80;99.90;;;;;;5054642;28;20108;-59
2022/07/26 06:38:50;;;;;;;3.25;1.05;;;21.80;99.90;;;;;;5054769;28;20406;-60
2022/07/26 06:41:15;;;;;;;3.28;1.30;;;21.80;99.90;;;;;;5054463;28;20345;-59
2022/07/26 06:43:41;;;;;;;3.80;1.38;;;21.90;99.60;;;;;;5054183;28;20036;-60
2022/07/26 06:46:06;;;;;;;3.63;1.42;;;21.90;99.10;;;;;;5053961;28;20037;-61
2022/07/26 06:48:33;;;;;;;2.13;1.50;;;22.00;98.90;;;;;;5053830;28;20128;-60
2022/07/26 06:50:59;;;;;;;5.25;2.55;;;22.10;98.60;;;;;;5053620;28;20492;-61
2022/07/26 06:53:24;;;;;;;4.88;1.50;;;22.30;98.20;;;;;;5053798;28;20034;-61
2022/07/26 06:55:50;;;;;;;4.25;1.13;;;22.40;98.00;;;;;;5053041;28;20067;-60
2022/07/26 06:58:15;;;;;;;;;;;22.60;97.60;;;;;;5052629;28;20025;-61
2022/07/26 07:00:41;;;;;;;3.70;1.23;;;22.80;97.10;;;;;;5052438;28;19905;-60
2022/07/26 07:03:06;;;;;;;4.90;1.17;;;23.00;96.60;;;;;;5053839;28;20029;-60
2022/07/26 07:05:32;;;;;;;9.95;4.25;;;23.10;96.30;;;;;;5053437;28;20371;-60
2022/07/26 07:07:58;;;;;;;2.05;1.25;;;23.20;95.80;;;;;;5053434;28;20044;-60
2022/07/26 07:10:23;;;;;;;;;;;23.20;95.70;;;;;;5054122;28;20033;-62
2022/07/26 07:12:48;;;;;;;1.60;1.00;;;23.20;95.60;;;;;;5054110;28;19904;-59
2022/07/26 07:15:14;;;;;;;;;;;23.30;95.30;;;;;;5054031;28;20469;-59
2022/07/26 07:17:39;;;;;;;3.08;1.40;;;23.30;95.20;;;;;;5053511;28;19971;-59
2022/07/26 07:20:05;;;;;;;;;;;23.20;95.20;;;;;;5054054;28;20478;-59
2022/07/26 07:22:31;;;;;;;5.68;1.13;;;22.90;95.70;;;;;;5053989;28;20372;-57
2022/07/26 07:24:57;;;;;;;3.05;0.90;;;22.70;95.60;;;;;;5053982;28;20025;-59
2022/07/26 07:27:23;;;;;;;3.00;1.40;;;22.60;95.80;;;;;;5052291;28;20052;-59
2022/07/26 07:29:48;;;;;;;2.78;0.82;;;22.50;96.00;;;;;;5053493;28;20049;-59
2022/07/26 07:32:14;;;;;;;;;;;22.50;96.10;;;;;;5054252;28;20040;-59
2022/07/26 07:34:39;;;;;;;3.85;1.25;;;22.50;96.00;;;;;;5054259;28;19909;-60
2022/07/26 07:37:05;;;;;;;1.70;0.80;;;22.50;95.90;;;;;;5053749;28;20533;-60
2022/07/26 07:39:31;;;;;;;3.28;1.35;;;22.50;95.70;;;;;;5052383;28;20029;-60
2022/07/26 07:41:56;;;;;;;;;;;22.60;95.60;;;;;;5053940;28;20374;-60
2022/07/26 07:44:22;;;;;;;2.45;0.90;;;22.60;95.40;;;;;;5053387;28;19992;-60
2022/07/26 07:46:47;;;;;;;;;;;22.50;95.50;;;;;;5053962;28;20021;-61
2022/07/26 07:49:14;;;;;;;2.90;0.88;;;22.50;95.60;;;;;;5053438;28;19913;-61
2022/07/26 07:51:40;;;;;;;3.08;0.80;;;22.60;95.20;;;;;;5051940;28;20159;-60
2022/07/26 07:54:06;;;;;;;3.33;0.63;;;22.60;95.10;;;;;;5053466;28;20060;-61
2022/07/26 07:56:32;;;;;;;5.50;1.10;;;22.70;95.00;;;;;;5052324;28;20025;-59
2022/07/26 07:58:58;;;;;;;4.53;1.13;;;22.70;95.00;;;;;;5051343;28;20025;-60
2022/07/26 08:01:24;;;;;;;5.25;1.10;;;22.70;94.90;;;;;;5052220;28;20112;-60
2022/07/26 08:03:49;;;;;;;2.97;1.08;;;22.80;94.90;;;;;;5053265;28;20033;-60
2022/07/26 08:06:15;;;;;;;9.27;1.50;;;23.00;94.60;;;;;;5053806;28;20025;-57
2022/07/26 08:08:40;;;;;;;;;;;23.20;94.40;;;;;;5057459;28;20037;-63
2022/07/26 08:11:06;;;;;;;2.13;1.00;;;23.40;94.10;;;;;;5057203;28;19916;-64
2022/07/26 08:13:31;;;;;;;;;;;24.60;92.80;;;;;;5057804;28;20492;-64
2022/07/26 08:15:57;;;;;;;2.88;0.90;;;25.90;90.90;;;;;;5056351;28;19904;-64
2022/07/26 08:18:23;;;;;;;2.03;0.65;;;27.30;88.10;;;;;;5057647;28;20033;-64
2022/07/26 08:20:50;;;;;;;2.35;1.00;;;27.70;85.20;;;;;;5058523;28;20052;-64
2022/07/26 08:23:16;;;;;;;8.07;1.10;;;28.80;82.50;;;;;;5056944;28;20033;-65
2022/07/26 08:25:42;;;;;;;3.63;0.90;;;28.90;80.50;;;;;;5057679;28;20032;-65
2022/07/26 08:28:07;;;;;;;1.58;0.90;;;29.90;77.60;;;;;;5058317;28;20039;-63
2022/07/26 08:30:33;;;;;;;2.28;0.90;;;30.90;75.20;;;;;;5056620;28;20025;-63
2022/07/26 08:32:59;;;;;;;2.75;1.13;;;32.10;71.80;;;;;;5056233;28;20116;-63
2022/07/26 08:35:24;;;;;;;3.38;1.20;;;33.50;68.60;;;;;;5055367;28;20470;-63
2022/07/26 08:37:50;;;;;;;2.08;0.90;;;33.90;66.20;;;;;;5056262;28;20029;-62
2022/07/26 08:40:16;;;;;;;2.95;1.10;;;34.70;64.20;;;;;;5055960;28;20025;-62
2022/07/26 08:42:52;;;;;;;2.58;0.93;;;35.10;62.20;;;;;;5056899;28;20024;-63
2022/07/26 08:45:25;;;;;;;4.53;1.15;;;35.50;61.10;;;;;;5057015;28;20033;-63
2022/07/26 08:47:50;;;;;;;5.55;1.23;;;34.90;60.90;;;;;;5056614;28;20029;-62
2022/07/26 08:50:16;;;;;;;2.17;0.70;;;33.60;61.40;;;;;;5058115;28;20025;-63
2022/07/26 08:52:42;;;;;;;1.77;1.00;;;32.60;63.10;;;;;;5057916;28;20492;-64
2022/07/26 08:55:09;;;;;;;4.95;0.90;;;32.80;63.00;;;;;;5057216;28;20025;-64
2022/07/26 08:57:35;;;;;;;3.33;0.85;;;33.00;62.80;;;;;;5058686;28;20099;-64
2022/07/26 09:00:24;;;;;;;5.43;1.10;;;33.70;61.70;;;;;;5055989;28;20045;-63
2022/07/26 09:02:50;;;;;;;2.78;1.35;;;34.20;60.70;;;;;;5057021;28;20500;-63
2022/07/26 09:05:19;;;;;;;2.38;0.90;;;34.60;60.20;;;;;;5057336;28;20048;-64
2022/07/26 09:07:44;;;;;;;2.47;1.27;;;35.30;59.50;;;;;;5056658;28;20048;-63
2022/07/26 09:10:13;;;;;;;3.33;0.93;;;35.90;58.60;;;;;;5056685;28;20036;-63
2022/07/26 09:12:39;;;;;;;2.50;0.88;;;36.80;57.20;;;;;;5056800;28;20071;-63
2022/07/26 09:15:07;;;;;;;2.10;0.90;;;37.50;56.40;;;;;;5056082;28;20029;-65
2022/07/26 09:17:48;;;;;;;2.17;1.20;;;37.90;55.30;;;;;;5056537;28;20044;-62
2022/07/26 09:20:18;;;;;;;3.45;1.00;;;38.40;54.70;;;;;;5055525;28;20082;-64
2022/07/26 09:22:55;;;;;;;3.65;1.20;;;38.30;54.10;;;;;;5054193;28;20074;-63
2022/07/26 09:25:23;;;;;;;2.78;1.10;;;38.10;53.90;;;;;;5055202;28;20437;-63
2022/07/26 09:27:50;;;;;;;2.55;1.23;;;38.10;53.60;;;;;;5054883;28;20079;-63
2022/07/26 09:30:16;;;;;;;2.20;1.27;;;36.50;54.30;;;;;;5053560;28;20040;-63
2022/07/26 09:33:02;;;;;;;1.70;0.80;;;36.60;54.40;;;;;;5055474;28;20013;-64
2022/07/26 09:35:30;;;;;;;6.35;1.02;;;34.60;55.60;;;;;;5055373;28;20021;-62
2022/07/26 09:37:55;;;;;;;2.25;0.80;;;31.60;58.40;;;;;;5055471;28;20143;-62
2022/07/26 09:40:21;;;;;;;1.80;0.57;;;31.70;59.80;;;;;;5055843;28;20029;-62
2022/07/26 09:42:53;;;;;;;2.25;0.80;;;33.60;57.90;;;;;;5055403;28;20099;-63
2022/07/26 09:45:19;;;;;;;2.60;0.80;;;33.80;56.30;;;;;;5055806;28;20029;-62
2022/07/26 09:47:44;;;;;;;1.58;0.93;;;32.90;57.80;;;;;;5055407;28;20047;-62
2022/07/26 09:50:13;;;;;;;3.15;0.88;;;33.30;57.80;;;;;;5055547;28;20036;-64
2022/07/26 09:52:39;;;;;;;1.35;0.75;;;34.10;57.00;;;;;;5055216;28;20381;-64
2022/07/26 09:55:06;;;;;;;1.02;0.57;;;34.30;56.30;;;;;;5055107;28;20028;-63
2022/07/26 09:57:36;;;;;;;5.50;1.23;;;33.50;56.70;;;;;;5054861;28;20024;-63
2022/07/26 10:00:04;;;;;;;1.77;0.98;;;32.10;58.70;;;;;;5055449;28;20089;-62
2022/07/26 10:02:31;;;;;;;2.80;0.75;;;30.80;60.00;;;;;;5053716;28;20431;-62
2022/07/26 10:04:56;;;;;;;1.60;0.70;;;30.10;61.30;;;;;;5054777;28;20049;-62
2022/07/26 10:07:22;;;;;;;3.20;0.80;;;29.50;62.40;;;;;;5054843;28;20017;-62
2022/07/26 10:09:59;;;;;;;1.88;0.82;;;29.20;63.00;;;;;;5054736;28;20033;-62
2022/07/26 10:12:30;;;;;;;1.48;1.00;;;29.00;63.00;;;;;;5054904;28;20078;-63
2022/07/26 10:14:55;;;;;;;1.63;0.82;;;29.60;61.80;;;;;;5055150;28;20040;-62
2022/07/26 10:17:27;;;;;;;1.90;0.82;;;31.60;59.20;;;;;;5054637;28;20025;-62
2022/07/26 10:20:00;;;;;;;1.58;0.80;;;32.30;57.90;;;;;;5053522;28;20447;-62
2022/07/26 10:22:40;;;;;;;1.35;0.60;;;31.90;58.70;;;;;;5053761;28;20060;-62
2022/07/26 10:25:18;;;;;;;4.22;0.70;;;32.30;58.40;;;;;;5054646;28;20056;-63
2022/07/26 10:27:47;;;;;;;2.92;0.90;;;31.40;59.10;;;;;;5053094;28;20139;-62
2022/07/26 10:30:16;;;;;;;2.67;0.95;;;29.80;60.40;;;;;;5053806;28;20021;-62
2022/07/26 10:33:02;;;;;;;3.55;0.93;;;28.70;62.10;;;;;;5053358;28;20037;-63
2022/07/26 10:35:42;;;;;;;2.80;0.80;;;29.60;61.70;;;;;;5054310;28;20021;-64
2022/07/26 10:38:20;;;;;;;1.05;0.60;;;31.20;59.10;;;;;;5052814;28;20489;-64
2022/07/26 10:40:58;;;;;;;3.22;0.98;;;32.10;58.10;;;;;;5054818;28;20033;-63
2022/07/26 10:43:25;;;;;;;1.88;0.60;;;31.40;58.40;;;;;;5052929;28;20392;-63
2022/07/26 10:46:15;;;;;;;3.42;0.80;;;30.10;60.20;;;;;;5054580;28;20037;-64
2022/07/26 10:49:02;;;;;;;2.83;0.60;;;29.20;62.50;;;;;;5052759;28;20028;-63
2022/07/26 10:51:32;;;;;;;3.88;0.85;;;30.40;61.40;;;;;;5053208;28;20072;-63
2022/07/26 10:54:05;;;;;;;3.25;0.80;;;31.50;60.10;;;;;;5055395;28;20024;-63
2022/07/26 10:56:32;;;;;;;4.78;3.30;;;32.30;58.70;;;;;;5054199;28;20075;-63
2022/07/26 10:58:57;;;;;;;2.70;0.88;;;32.90;58.00;;;;;;5053767;28;20029;-63
2022/07/26 11:01:38;;;;;;;1.48;0.70;;;32.80;57.50;;;;;;5053696;28;20029;-64
2022/07/26 11:04:16;;;;;;;1.67;0.60;;;31.60;58.60;;;;;;5054612;28;20067;-63
2022/07/26 11:06:41;;;;;;;0.70;0.50;;;31.30;59.10;;;;;;5054117;28;20092;-63
2022/07/26 11:09:11;;;;;;;2.53;0.80;;;32.00;58.60;;;;;;5053941;28;20068;-63
2022/07/26 11:11:37;;;;;;;2.20;0.88;;;32.80;57.90;;;;;;5053415;28;20090;-65
2022/07/26 11:14:10;;;;;;;5.55;0.70;;;32.30;57.90;;;;;;5052716;28;20021;-64
2022/07/26 11:16:44;;;;;;;1.83;0.70;;;31.70;58.60;;;;;;5053897;28;20052;-64
2022/07/26 11:19:18;;;;;;;2.75;0.93;;;31.00;59.40;;;;;;5053633;28;20393;-65
2022/07/26 11:21:46;;;;;;;1.17;0.60;;;30.40;60.50;;;;;;5052679;28;20063;-64
2022/07/26 11:24:12;;;;;;;2.20;0.95;;;29.50;61.40;;;;;;5053617;28;20382;-65
2022/07/26 11:26:43;;;;;;;1.90;0.77;;;29.00;62.60;;;;;;5053186;28;20028;-64
2022/07/26 11:29:09;;;;;;;1.27;0.65;;;28.60;63.60;;;;;;5052957;28;20534;-64
2022/07/26 11:31:44;;;;;;;2.50;0.80;;;28.50;64.10;;;;;;5053121;28;20031;-63
2022/07/26 11:34:18;;;;;;;1.88;0.80;;;28.40;64.00;;;;;;5053086;28;20116;-63
2022/07/26 11:36:45;;;;;;;1.90;0.90;;;28.40;64.00;;;;;;5052824;28;20029;-63
2022/07/26 11:39:13;;;;;;;3.22;0.93;;;28.30;64.40;;;;;;5052722;28;20043;-64
2022/07/26 11:41:40;;;;;;;1.27;0.68;;;28.30;64.80;;;;;;5054165;28;20032;-64
2022/07/26 11:44:13;;;;;;;3.08;1.58;;;28.20;64.50;;;;;;5053398;28;20029;-64
2022/07/26 11:46:39;;;;;;;2.33;0.70;;;28.30;64.40;;;;;;5053339;28;20029;-64
2022/07/26 11:49:16;;;;;;;3.88;0.73;;;28.30;63.90;;;;;;5053066;28;20017;-65
2022/07/26 11:51:48;;;;;;;2.53;0.75;;;28.10;63.80;;;;;;5052848;28;20022;-63
2022/07/26 11:54:13;;;;;;;1.10;0.60;;;28.20;64.00;;;;;;5053075;28;20083;-63
2022/07/26 11:56:52;;;;;;;1.90;0.77;;;28.10;63.80;;;;;;5052955;28;20454;-63
2022/07/26 11:59:18;;;;;;;2.40;1.13;;;28.20;64.00;;;;;;5052955;28;20036;-64
2022/07/26 12:01:45;;;;;;;1.30;0.85;;;28.00;63.80;;;;;;5052974;28;20025;-63
2022/07/26 12:04:22;;;;;;;1.13;0.60;;;27.90;64.00;;;;;;5052817;28;20029;-64
2022/07/26 12:06:48;;;;;;;2.67;0.80;;;27.90;63.60;;;;;;5053318;28;20074;-64
2022/07/26 12:09:32;;;;;;;2.33;0.90;;;28.00;63.40;;;;;;5052034;28;20250;-63
2022/07/26 12:11:58;;;;;;;0.90;0.50;;;28.10;63.30;;;;;;5052645;28;20045;-63
2022/07/26 12:14:25;;;;;;;5.43;1.00;;;28.20;63.40;;;;;;5051248;28;20036;-63
2022/07/26 12:16:50;;;;;;;1.77;0.85;;;28.10;63.80;;;;;;5053224;28;20083;-64
2022/07/26 12:19:16;;;;;;;1.02;0.60;;;28.10;64.60;;;;;;5053483;28;20458;-63
2022/07/26 12:21:44;;;;;;;3.13;0.60;;;28.20;64.50;;;;;;5053038;28;20024;-64
2022/07/26 12:24:12;;;;;;;3.58;0.70;;;27.90;64.60;;;;;;5053433;28;20025;-63
2022/07/26 12:26:39;;;;;;;1.88;0.63;;;28.10;64.10;;;;;;5052996;28;20032;-63
2022/07/26 12:29:23;;;;;;;4.75;0.60;;;28.10;63.80;;;;;;5053113;28;20512;-63
2022/07/26 12:32:04;;;;;;;2.05;0.90;;;28.10;63.70;;;;;;5052607;28;20036;-62
2022/07/26 12:34:30;;;;;;;2.60;0.80;;;27.90;63.60;;;;;;5053047;28;20033;-63
2022/07/26 12:37:16;;;;;;;1.65;0.80;;;27.70;64.50;;;;;;5052768;28;20017;-63
2022/07/26 12:39:58;;;;;;;2.73;0.87;;;27.70;64.30;;;;;;5052505;28;20025;-63
2022/07/26 12:42:28;;;;;;;1.40;0.68;;;27.60;64.40;;;;;;5052908;28;20366;-63
2022/07/26 12:44:54;;;;;;;1.50;0.88;;;27.40;65.00;;;;;;5053123;28;20075;-63
2022/07/26 12:47:20;;;;;;;1.75;0.80;;;27.40;65.00;;;;;;5053215;28;20063;-64
2022/07/26 12:49:46;;;;;;;2.80;0.82;;;27.30;64.90;;;;;;5053382;28;20060;-63
2022/07/26 12:52:14;;;;;;;3.67;2.03;;;27.20;65.30;;;;;;5053128;28;20613;-62
2022/07/26 12:54:40;;;;;;;2.28;0.80;;;27.20;65.60;;;;;;5055836;28;20091;-62
2022/07/26 12:57:06;;;;;;;1.52;0.93;;;27.40;65.80;;;;;;5056912;28;20425;-61
2022/07/26 12:59:31;;;;;;;2.63;0.68;;;27.50;65.10;;;;;;5056632;28;20029;-62